Terminal Aerodrome Forecast
Issued by NWS

Home | Current Version | Previous Version | Text Only | Print | Product List | Glossary On
Versions: 1 2 3 4 5 6 7 8 9 10 11 12
000
FTUS46 KMTR 291700
TAFMRY
TAF
KMRY 291734Z 2918/3018 11004KT P6SM FEW200
     FM292100 31006KT P6SM FEW200
     FM300200 12003KT P6SM FEW200
     FM300900 12004KT 6SM BR SCT007
     FM301700 29005KT P6SM FEW010=

USA.gov is the U.S. government's official web portal to all federal, state and local government web resources and services.